createdAt,value
2023-01-29T00:00:17.785Z,1.00
2023-01-29T00:02:50.563Z,1.00
2023-01-29T00:05:28.027Z,1.00
2023-01-29T00:07:59.301Z,1.00
2023-01-29T00:10:29.386Z,1.00
2023-01-29T00:12:59.226Z,1.00
2023-01-29T00:15:29.014Z,1.00
2023-01-29T00:18:01.411Z,1.00
2023-01-29T00:20:31.274Z,1.00
2023-01-29T00:23:01.103Z,1.00
2023-01-29T00:25:31.054Z,1.00
2023-01-29T00:28:00.823Z,1.00
2023-01-29T00:30:30.744Z,1.00
2023-01-29T00:33:03.134Z,1.00
2023-01-29T00:35:33.018Z,1.00
2023-01-29T00:38:02.949Z,1.00
2023-01-29T00:40:53.165Z,1.00
2023-01-29T00:43:35.769Z,1.00
2023-01-29T00:46:06.608Z,1.00
2023-01-29T00:48:39.818Z,1.00
2023-01-29T00:51:09.647Z,1.00
2023-01-29T00:53:39.496Z,1.00
2023-01-29T00:56:09.917Z,1.00
2023-01-29T00:58:39.850Z,1.00
2023-01-29T01:01:09.783Z,1.00
2023-01-29T01:03:42.212Z,1.00
2023-01-29T01:06:13.585Z,1.00
2023-01-29T01:08:55.999Z,1.00
2023-01-29T01:11:25.868Z,1.00
2023-01-29T01:14:02.178Z,1.00
2023-01-29T01:16:32.095Z,1.00
2023-01-29T01:19:06.245Z,1.00
2023-01-29T01:21:36.406Z,1.00
2023-01-29T01:24:06.457Z,1.00
2023-01-29T01:26:36.328Z,1.00
2023-01-29T01:29:06.261Z,1.00
2023-01-29T01:31:36.230Z,1.00
2023-01-29T01:34:08.674Z,1.00
2023-01-29T01:36:38.518Z,1.00
2023-01-29T01:39:08.513Z,1.00
2023-01-29T01:41:38.767Z,1.00
2023-01-29T01:44:09.282Z,1.00
2023-01-29T01:46:40.559Z,1.00
2023-01-29T01:49:18.251Z,1.00
2023-01-29T01:51:51.635Z,1.00
2023-01-29T01:54:26.472Z,1.00
2023-01-29T01:57:05.004Z,1.00
2023-01-29T01:59:36.706Z,1.00
2023-01-29T02:02:20.292Z,1.00
2023-01-29T02:05:07.017Z,1.00
2023-01-29T02:07:50.341Z,1.00
2023-01-29T02:10:22.306Z,1.00
2023-01-29T02:12:52.322Z,1.00
2023-01-29T02:15:22.402Z,1.00
2023-01-29T02:17:52.389Z,1.00
2023-01-29T02:20:28.604Z,1.00
2023-01-29T02:23:27.259Z,1.00
2023-01-29T02:26:21.066Z,1.00
2023-01-29T02:28:57.437Z,1.00
2023-01-29T02:31:35.839Z,1.00
2023-01-29T02:34:14.555Z,1.00
2023-01-29T02:36:49.744Z,1.00
2023-01-29T02:39:27.181Z,1.00
2023-01-29T02:42:03.735Z,1.00
2023-01-29T02:44:41.703Z,1.00
2023-01-29T02:47:19.565Z,1.00
2023-01-29T02:49:53.986Z,1.00
2023-01-29T02:52:28.336Z,1.00
2023-01-29T02:55:04.851Z,1.00
2023-01-29T02:57:38.994Z,1.00
2023-01-29T03:00:17.700Z,1.00
2023-01-29T03:02:51.569Z,1.00
2023-01-29T03:05:31.440Z,1.00
2023-01-29T03:08:04.710Z,1.00
2023-01-29T03:10:39.987Z,1.00
2023-01-29T03:13:15.962Z,1.00
2023-01-29T03:15:52.202Z,1.00
2023-01-29T03:18:27.687Z,1.00
2023-01-29T03:21:04.384Z,1.00
2023-01-29T03:23:50.420Z,1.00
2023-01-29T03:26:35.798Z,1.00
2023-01-29T03:29:19.417Z,1.00
2023-01-29T03:32:08.538Z,1.00
2023-01-29T03:34:43.758Z,1.00
2023-01-29T03:37:21.877Z,1.00
2023-01-29T03:39:51.966Z,1.00
2023-01-29T03:42:26.971Z,1.00
2023-01-29T03:45:08.317Z,1.00
2023-01-29T03:47:48.757Z,1.00
2023-01-29T03:50:32.388Z,1.00
2023-01-29T03:53:09.914Z,1.00
2023-01-29T03:55:45.974Z,1.00
2023-01-29T03:58:23.713Z,1.00
2023-01-29T04:00:59.762Z,1.00
2023-01-29T04:03:37.335Z,1.00
2023-01-29T04:06:14.128Z,1.00
2023-01-29T04:08:49.911Z,1.00
2023-01-29T04:11:23.375Z,1.00
2023-01-29T04:13:54.297Z,1.00
2023-01-29T04:16:27.992Z,1.00
2023-01-29T04:19:00.959Z,1.00
2023-01-29T04:21:31.967Z,1.00
2023-01-29T04:24:01.928Z,1.00
2023-01-29T04:26:50.401Z,1.00
2023-01-29T04:29:32.239Z,1.00
2023-01-29T04:32:10.748Z,1.00
2023-01-29T04:34:54.534Z,1.00
2023-01-29T04:37:35.333Z,1.00
2023-01-29T04:40:17.810Z,1.00
2023-01-29T04:42:52.752Z,1.00
2023-01-29T04:45:30.922Z,1.00
2023-01-29T04:48:07.680Z,1.00
2023-01-29T04:50:43.342Z,1.00
2023-01-29T04:53:20.670Z,1.00
2023-01-29T04:55:54.681Z,1.00
2023-01-29T04:58:32.139Z,1.00
2023-01-29T05:01:04.789Z,1.00
2023-01-29T05:03:36.708Z,1.00
2023-01-29T05:06:12.502Z,1.00
2023-01-29T05:08:43.572Z,1.00
2023-01-29T05:11:14.425Z,1.00
2023-01-29T05:13:45.850Z,1.00
2023-01-29T05:16:19.824Z,1.00
2023-01-29T05:18:50.068Z,1.00
2023-01-29T05:21:23.572Z,1.00
2023-01-29T05:24:12.064Z,1.00
2023-01-29T05:26:54.491Z,1.00
2023-01-29T05:29:24.890Z,1.00
2023-01-29T05:31:54.774Z,1.00
2023-01-29T05:34:24.688Z,1.00
2023-01-29T05:36:57.192Z,1.00
2023-01-29T05:39:27.166Z,1.00
2023-01-29T05:41:57.090Z,1.00
2023-01-29T05:44:26.998Z,1.00
2023-01-29T05:46:56.944Z,1.00
2023-01-29T05:49:26.974Z,1.00
2023-01-29T05:51:59.520Z,1.00
2023-01-29T05:54:29.384Z,1.00
2023-01-29T05:56:59.234Z,1.00
2023-01-29T05:59:31.245Z,1.00
2023-01-29T06:02:01.496Z,1.00
2023-01-29T06:04:31.352Z,1.00
2023-01-29T06:07:05.182Z,1.00
2023-01-29T06:09:35.052Z,1.00
2023-01-29T06:12:06.224Z,1.00
2023-01-29T06:14:36.021Z,1.00
2023-01-29T06:17:05.882Z,1.00
2023-01-29T06:19:35.732Z,1.00
2023-01-29T06:22:08.284Z,1.00
2023-01-29T06:24:38.226Z,1.00
2023-01-29T06:27:08.098Z,1.00
2023-01-29T06:29:37.955Z,1.00
2023-01-29T06:32:08.367Z,1.00
2023-01-29T06:34:38.507Z,1.00
2023-01-29T06:37:10.990Z,1.00
2023-01-29T06:39:40.874Z,1.00
2023-01-29T06:42:11.569Z,1.00
2023-01-29T06:44:41.404Z,1.00
2023-01-29T06:47:11.334Z,1.00
2023-01-29T06:49:41.182Z,1.00
2023-01-29T06:52:13.711Z,1.00
2023-01-29T06:54:43.598Z,1.00
2023-01-29T06:57:13.622Z,1.00
2023-01-29T06:59:43.522Z,1.00
2023-01-29T07:02:13.526Z,1.00
2023-01-29T07:04:43.482Z,1.00
2023-01-29T07:07:15.985Z,1.00
2023-01-29T07:09:46.225Z,1.00
2023-01-29T07:12:16.040Z,1.00
2023-01-29T07:14:45.873Z,1.00
2023-01-29T07:17:15.725Z,1.00
2023-01-29T07:19:45.499Z,1.00
2023-01-29T07:22:18.098Z,1.00
2023-01-29T07:24:48.413Z,1.00
2023-01-29T07:27:18.283Z,1.00
2023-01-29T07:29:48.094Z,1.00
2023-01-29T07:32:17.981Z,1.00
2023-01-29T07:34:49.506Z,1.00
2023-01-29T07:37:21.977Z,1.00
2023-01-29T07:39:51.808Z,1.00
2023-01-29T07:42:21.650Z,1.00
2023-01-29T07:44:51.491Z,1.00
2023-01-29T07:47:21.401Z,1.00
2023-01-29T07:49:51.150Z,1.00
2023-01-29T07:52:23.570Z,1.00
2023-01-29T07:54:53.444Z,1.00
2023-01-29T07:57:23.257Z,1.00
2023-01-29T07:59:53.229Z,1.00
2023-01-29T08:02:23.189Z,1.00
2023-01-29T08:04:53.183Z,1.00
2023-01-29T08:07:25.679Z,1.00
2023-01-29T08:09:55.560Z,1.00
2023-01-29T08:12:25.395Z,1.00
2023-01-29T08:14:55.224Z,1.00
2023-01-29T08:17:25.090Z,1.00
2023-01-29T08:19:54.964Z,1.00
2023-01-29T08:22:27.434Z,1.00
2023-01-29T08:25:06.310Z,1.00
2023-01-29T08:27:38.178Z,1.00
2023-01-29T08:30:09.135Z,1.00
2023-01-29T08:32:39.056Z,1.00
2023-01-29T08:35:09.445Z,1.00
2023-01-29T08:37:41.883Z,1.00
2023-01-29T08:40:13.612Z,1.00
2023-01-29T08:42:44.210Z,1.00
2023-01-29T08:45:14.764Z,1.00
2023-01-29T08:47:48.664Z,1.00
2023-01-29T08:50:19.827Z,1.00
2023-01-29T08:52:52.472Z,1.00
2023-01-29T08:55:22.319Z,1.00
2023-01-29T08:57:52.201Z,1.00
2023-01-29T09:00:22.932Z,1.00
2023-01-29T09:02:53.035Z,1.00
2023-01-29T09:05:23.010Z,1.00
2023-01-29T09:07:55.461Z,1.00
2023-01-29T09:10:25.364Z,1.00
2023-01-29T09:12:55.401Z,1.00
2023-01-29T09:15:25.564Z,1.00
2023-01-29T09:17:55.407Z,1.00
2023-01-29T09:20:25.409Z,1.00
2023-01-29T09:22:59.220Z,1.00
2023-01-29T09:25:29.063Z,1.00
2023-01-29T09:27:59.083Z,1.00
2023-01-29T09:30:29.099Z,1.00
2023-01-29T09:32:59.079Z,1.00
2023-01-29T09:35:29.126Z,1.00
2023-01-29T09:38:01.603Z,1.00
2023-01-29T09:40:38.296Z,1.00
2023-01-29T09:43:13.559Z,1.00
2023-01-29T09:45:47.442Z,1.00
2023-01-29T09:48:18.995Z,1.00
2023-01-29T09:50:51.579Z,1.00
2023-01-29T09:53:30.073Z,1.00
2023-01-29T09:56:05.118Z,1.00
2023-01-29T09:58:37.705Z,1.00
2023-01-29T10:01:16.193Z,1.00
2023-01-29T10:04:03.109Z,1.00
2023-01-29T10:06:47.193Z,1.00
2023-01-29T10:09:39.220Z,1.00
2023-01-29T10:12:25.571Z,1.00
2023-01-29T10:15:06.494Z,1.00
2023-01-29T10:18:00.353Z,1.00
2023-01-29T10:20:58.184Z,1.00
2023-01-29T10:23:34.538Z,1.00
2023-01-29T10:26:07.668Z,1.00
2023-01-29T10:28:43.207Z,1.00
2023-01-29T10:31:16.507Z,1.00
2023-01-29T10:34:01.928Z,1.00
2023-01-29T10:36:39.038Z,1.00
2023-01-29T10:39:13.680Z,1.00
2023-01-29T10:42:00.844Z,1.00
2023-01-29T10:44:43.764Z,1.00
2023-01-29T10:47:37.739Z,1.00
2023-01-29T10:50:19.283Z,1.00
2023-01-29T10:53:06.075Z,1.00
2023-01-29T10:55:46.135Z,1.00
2023-01-29T10:58:29.272Z,1.00
2023-01-29T11:00:59.624Z,1.00
2023-01-29T11:03:31.549Z,1.00
2023-01-29T11:06:13.057Z,1.00
2023-01-29T11:08:48.921Z,1.00
2023-01-29T11:11:22.221Z,1.00
2023-01-29T11:14:00.059Z,1.00
2023-01-29T11:16:33.485Z,1.00
2023-01-29T11:19:04.290Z,1.00
2023-01-29T11:21:34.157Z,1.00
2023-01-29T11:24:17.568Z,1.00
2023-01-29T11:26:50.730Z,1.00
2023-01-29T11:29:45.796Z,1.00
2023-01-29T11:32:27.371Z,1.00
2023-01-29T11:35:06.827Z,1.00
2023-01-29T11:37:39.130Z,1.00
2023-01-29T11:40:39.142Z,1.00
2023-01-29T11:43:20.903Z,1.00
2023-01-29T11:45:56.474Z,1.00
2023-01-29T11:48:32.013Z,1.00
2023-01-29T11:51:05.596Z,1.00
2023-01-29T11:53:42.666Z,1.00
2023-01-29T11:56:30.125Z,1.00
2023-01-29T11:59:04.567Z,1.00
2023-01-29T12:01:39.662Z,1.00
2023-01-29T12:04:21.394Z,1.00
2023-01-29T12:06:54.819Z,1.00
2023-01-29T12:09:27.341Z,1.00
2023-01-29T12:11:57.842Z,1.00
2023-01-29T12:14:34.216Z,1.00
2023-01-29T12:17:14.560Z,1.00
2023-01-29T12:19:49.722Z,1.00
2023-01-29T12:22:25.102Z,1.00
2023-01-29T12:25:01.203Z,1.00
2023-01-29T12:27:38.464Z,1.00
2023-01-29T12:30:15.858Z,1.00
2023-01-29T12:32:57.249Z,1.00
2023-01-29T12:35:30.080Z,1.00
2023-01-29T12:38:05.664Z,1.00
2023-01-29T12:40:40.833Z,1.00
2023-01-29T12:43:18.272Z,1.00
2023-01-29T12:45:52.227Z,1.00
2023-01-29T12:48:30.498Z,1.00
2023-01-29T12:51:09.035Z,1.00
2023-01-29T12:53:46.506Z,1.00
2023-01-29T12:56:22.105Z,1.00
2023-01-29T12:58:55.509Z,1.00
2023-01-29T13:01:31.389Z,1.00
2023-01-29T13:04:08.173Z,1.00
2023-01-29T13:06:44.209Z,1.00
2023-01-29T13:09:18.314Z,1.00
2023-01-29T13:11:55.038Z,1.00
2023-01-29T13:14:28.950Z,1.00
2023-01-29T13:17:10.568Z,1.00
2023-01-29T13:19:46.789Z,1.00
2023-01-29T13:22:25.147Z,1.00
2023-01-29T13:25:04.775Z,1.00
2023-01-29T13:27:37.996Z,1.00
2023-01-29T13:30:09.289Z,1.00
2023-01-29T13:32:39.557Z,1.00
2023-01-29T13:35:17.673Z,1.00
2023-01-29T13:37:52.758Z,1.00
2023-01-29T13:40:27.503Z,1.00
2023-01-29T13:43:00.346Z,1.00
2023-01-29T13:45:36.642Z,1.00
2023-01-29T13:48:20.298Z,1.00
2023-01-29T13:50:55.742Z,1.00
2023-01-29T13:53:29.814Z,1.00
2023-01-29T13:56:33.202Z,1.00
2023-01-29T13:59:05.437Z,1.00
2023-01-29T14:02:13.935Z,1.00
2023-01-29T14:04:43.852Z,1.00
2023-01-29T14:07:43.643Z,1.00
2023-01-29T14:10:20.902Z,1.00
2023-01-29T14:12:53.105Z,1.00
2023-01-29T14:15:32.094Z,1.00
2023-01-29T14:18:22.276Z,1.00
2023-01-29T14:21:02.244Z,1.00
2023-01-29T14:23:46.131Z,1.00
2023-01-29T14:26:31.698Z,1.00
2023-01-29T14:29:08.170Z,1.00
2023-01-29T14:31:44.928Z,1.00
2023-01-29T14:34:31.449Z,1.00
2023-01-29T14:37:06.174Z,1.00
2023-01-29T14:39:40.373Z,1.00
2023-01-29T14:42:24.989Z,1.00
2023-01-29T14:45:11.354Z,1.00
2023-01-29T14:47:57.395Z,1.00
2023-01-29T14:50:49.791Z,1.00
2023-01-29T14:53:36.507Z,1.00
2023-01-29T14:56:14.290Z,1.00
2023-01-29T14:58:51.041Z,1.00
2023-01-29T15:01:28.061Z,1.00
2023-01-29T15:04:04.076Z,1.00
2023-01-29T15:06:40.461Z,1.00
2023-01-29T15:09:17.292Z,1.00
2023-01-29T15:11:55.402Z,1.00
2023-01-29T15:14:35.693Z,1.00
2023-01-29T15:17:20.540Z,1.00
2023-01-29T15:19:51.389Z,1.00
2023-01-29T15:22:23.351Z,1.00
2023-01-29T15:25:07.858Z,1.00
2023-01-29T15:27:45.251Z,1.00
2023-01-29T15:30:21.447Z,1.00
2023-01-29T15:32:51.863Z,1.00
2023-01-29T15:35:32.239Z,1.00
2023-01-29T15:38:05.478Z,1.00
2023-01-29T15:40:36.782Z,1.00
2023-01-29T15:43:23.168Z,1.00
2023-01-29T15:45:58.339Z,1.00
2023-01-29T15:48:34.081Z,1.00
2023-01-29T15:51:05.128Z,1.00
2023-01-29T15:53:38.994Z,1.00
2023-01-29T15:56:12.355Z,1.00
2023-01-29T15:58:42.990Z,1.00
2023-01-29T16:01:16.875Z,1.00
2023-01-29T16:03:47.902Z,1.00
2023-01-29T16:06:18.398Z,1.00
2023-01-29T16:08:52.481Z,1.00
2023-01-29T16:11:23.198Z,1.00
2023-01-29T16:13:54.402Z,1.00
2023-01-29T16:16:28.845Z,1.00
2023-01-29T16:19:00.831Z,1.00
2023-01-29T16:21:34.269Z,1.00
2023-01-29T16:24:09.643Z,1.00
2023-01-29T16:26:42.205Z,1.00
2023-01-29T16:29:14.431Z,1.00
2023-01-29T16:31:48.661Z,1.00
2023-01-29T16:34:25.213Z,1.00
2023-01-29T16:36:55.758Z,1.00
2023-01-29T16:39:28.826Z,1.00
2023-01-29T16:42:24.765Z,1.00
2023-01-29T16:44:57.488Z,1.00
2023-01-29T16:47:38.384Z,1.00
2023-01-29T16:50:28.791Z,1.00
2023-01-29T16:53:00.889Z,1.00
2023-01-29T16:55:38.288Z,1.00
2023-01-29T16:58:16.810Z,1.00
2023-01-29T17:00:49.439Z,1.00
2023-01-29T17:03:22.844Z,1.00
2023-01-29T17:05:53.169Z,1.00
2023-01-29T17:08:26.534Z,1.00
2023-01-29T17:10:56.595Z,1.00
2023-01-29T17:13:33.684Z,1.00
2023-01-29T17:16:05.496Z,1.00
2023-01-29T17:18:38.942Z,1.00
2023-01-29T17:21:08.895Z,1.00
2023-01-29T17:23:38.762Z,1.00
2023-01-29T17:26:10.719Z,1.00
2023-01-29T17:28:40.926Z,1.00
2023-01-29T17:31:10.929Z,1.00
2023-01-29T17:33:45.961Z,1.00
2023-01-29T17:36:18.594Z,1.00
2023-01-29T17:38:48.870Z,1.00
2023-01-29T17:41:25.763Z,1.00
2023-01-29T17:43:55.689Z,1.00
2023-01-29T17:46:25.588Z,1.00
2023-01-29T17:48:58.088Z,1.00
2023-01-29T17:51:28.068Z,1.00
2023-01-29T17:53:57.907Z,1.00
2023-01-29T17:56:30.365Z,1.00
2023-01-29T17:59:01.021Z,1.00
2023-01-29T18:01:30.926Z,1.00
2023-01-29T18:04:03.481Z,1.00
2023-01-29T18:06:34.774Z,1.00
2023-01-29T18:09:04.983Z,1.00
2023-01-29T18:11:35.441Z,1.00
2023-01-29T18:14:13.511Z,1.00
2023-01-29T18:16:45.885Z,1.00
2023-01-29T18:19:23.282Z,1.00
2023-01-29T18:21:54.268Z,1.00
2023-01-29T18:24:26.611Z,1.00
2023-01-29T18:26:56.587Z,1.00
2023-01-29T18:29:30.109Z,1.00
2023-01-29T18:32:00.078Z,1.00
2023-01-29T18:34:32.582Z,1.00
2023-01-29T18:37:02.625Z,1.80
2023-01-29T18:39:32.584Z,1.90
2023-01-29T18:42:02.489Z,1.10
2023-01-29T18:44:32.677Z,1.30
2023-01-29T18:47:02.507Z,1.70
2023-01-29T18:49:38.826Z,1.90
2023-01-29T18:52:08.944Z,1.80
2023-01-29T18:54:38.823Z,2.90
2023-01-29T18:57:14.635Z,3.70
2023-01-29T19:00:01.471Z,4.10
2023-01-29T19:02:32.803Z,4.60
2023-01-29T19:05:05.379Z,5.00
2023-01-29T19:07:35.254Z,5.10
2023-01-29T19:10:06.784Z,5.30
2023-01-29T19:12:37.042Z,5.40
2023-01-29T19:15:07.700Z,5.00
2023-01-29T19:17:37.755Z,5.10
2023-01-29T19:20:11.788Z,4.80
2023-01-29T19:22:42.715Z,4.90
2023-01-29T19:25:13.754Z,4.50
2023-01-29T19:27:43.703Z,4.10
2023-01-29T19:30:15.355Z,4.10
2023-01-29T19:32:45.376Z,5.20
2023-01-29T19:35:18.341Z,5.00
2023-01-29T19:37:48.496Z,4.80
2023-01-29T19:40:18.840Z,5.00
2023-01-29T19:42:48.956Z,4.70
2023-01-29T19:45:34.908Z,5.10
2023-01-29T19:48:14.588Z,4.90
2023-01-29T19:50:53.417Z,5.80
2023-01-29T19:53:23.641Z,5.30
2023-01-29T19:56:00.921Z,4.70
2023-01-29T19:58:32.073Z,5.10
2023-01-29T20:01:03.443Z,4.00
2023-01-29T20:03:34.260Z,3.90
2023-01-29T20:06:11.346Z,2.90
2023-01-29T20:08:41.484Z,1.10
2023-01-29T20:11:12.562Z,1.00
2023-01-29T20:13:42.987Z,1.00
2023-01-29T20:16:13.046Z,1.00
2023-01-29T20:18:43.071Z,1.00
2023-01-29T20:21:17.446Z,1.00
2023-01-29T20:23:47.287Z,1.00
2023-01-29T20:26:19.102Z,1.00
2023-01-29T20:28:50.080Z,1.00
2023-01-29T20:31:20.131Z,1.30
2023-01-29T20:33:50.021Z,1.70
2023-01-29T20:36:22.579Z,2.90
2023-01-29T20:38:52.492Z,4.10
2023-01-29T20:41:22.637Z,5.00
2023-01-29T20:43:52.628Z,5.10
2023-01-29T20:46:22.812Z,5.40
2023-01-29T20:48:54.295Z,6.20
2023-01-29T20:51:26.790Z,6.10
2023-01-29T20:53:57.322Z,6.20
2023-01-29T20:56:36.860Z,6.30
2023-01-29T20:59:11.190Z,6.80
2023-01-29T21:01:41.163Z,6.80
2023-01-29T21:04:11.061Z,7.20
2023-01-29T21:06:44.243Z,7.70
2023-01-29T21:09:14.489Z,8.60
2023-01-29T21:11:45.022Z,8.60
2023-01-29T21:14:15.059Z,8.60
2023-01-29T21:16:45.063Z,9.60
2023-01-29T21:19:16.618Z,8.40
2023-01-29T21:21:49.028Z,7.50
2023-01-29T21:24:19.421Z,7.90
2023-01-29T21:26:49.635Z,8.20
2023-01-29T21:29:19.521Z,8.60
2023-01-29T21:31:49.694Z,8.60
2023-01-29T21:34:22.193Z,8.60
2023-01-29T21:36:54.654Z,9.20
2023-01-29T21:39:26.416Z,10.20
2023-01-29T21:42:08.958Z,10.70
2023-01-29T21:44:39.519Z,10.80
2023-01-29T21:47:12.369Z,11.20
2023-01-29T21:49:43.970Z,11.80
2023-01-29T21:52:17.090Z,12.00
2023-01-29T21:54:49.153Z,12.40
2023-01-29T21:57:19.798Z,12.70
2023-01-29T21:59:52.931Z,12.80
2023-01-29T22:02:26.255Z,13.20
2023-01-29T22:05:08.738Z,13.70
2023-01-29T22:07:49.930Z,12.70
2023-01-29T22:10:21.433Z,12.00
2023-01-29T22:12:51.449Z,12.00
2023-01-29T22:15:23.553Z,11.50
2023-01-29T22:17:53.914Z,11.00
2023-01-29T22:20:29.756Z,10.70
2023-01-29T22:23:03.018Z,10.30
2023-01-29T22:25:33.506Z,9.40
2023-01-29T22:28:03.330Z,9.60
2023-01-29T22:30:33.256Z,9.10
2023-01-29T22:33:03.126Z,9.20
2023-01-29T22:35:32.899Z,8.60
2023-01-29T22:38:05.522Z,8.60
2023-01-29T22:40:35.433Z,8.50
2023-01-29T22:43:05.328Z,8.50
2023-01-29T22:45:35.398Z,8.50
2023-01-29T22:48:07.132Z,8.80
2023-01-29T22:50:37.861Z,9.30
2023-01-29T22:53:11.438Z,9.90
2023-01-29T22:55:41.304Z,10.70
2023-01-29T22:58:11.122Z,11.30
2023-01-29T23:00:40.968Z,11.80
2023-01-29T23:03:10.785Z,12.30
2023-01-29T23:05:40.742Z,11.80
2023-01-29T23:08:13.266Z,11.80
2023-01-29T23:10:43.147Z,11.80
2023-01-29T23:13:13.142Z,11.90
2023-01-29T23:15:42.970Z,12.10
2023-01-29T23:18:13.106Z,12.10
2023-01-29T23:20:44.316Z,12.70
2023-01-29T23:23:16.704Z,12.30
2023-01-29T23:25:58.995Z,12.30
2023-01-29T23:28:28.831Z,12.60
2023-01-29T23:30:58.677Z,12.30
2023-01-29T23:33:28.619Z,12.10
2023-01-29T23:35:58.368Z,11.90
2023-01-29T23:38:30.739Z,11.60
2023-01-29T23:41:01.297Z,11.10
2023-01-29T23:43:32.004Z,10.30
2023-01-29T23:46:01.933Z,9.20
2023-01-29T23:48:31.738Z,8.80
2023-01-29T23:51:01.507Z,8.40
2023-01-29T23:53:33.901Z,7.90
2023-01-29T23:56:05.038Z,7.90
2023-01-29T23:58:35.317Z,7.10
